createdAt,value
2018-12-07T00:01:36.459Z,22.60
2018-12-07T00:04:04.386Z,24.70
2018-12-07T00:06:32.281Z,20.00
2018-12-07T00:09:00.158Z,19.97
2018-12-07T00:11:28.178Z,20.70
2018-12-07T00:13:56.042Z,19.83
2018-12-07T00:16:23.964Z,19.27
2018-12-07T00:18:51.860Z,17.57
2018-12-07T00:21:19.731Z,17.80
2018-12-07T00:23:47.593Z,17.57
2018-12-07T00:26:15.469Z,19.27
2018-12-07T00:28:43.322Z,18.83
2018-12-07T00:31:11.192Z,20.20
2018-12-07T00:33:39.075Z,23.00
2018-12-07T00:36:06.898Z,17.30
2018-12-07T00:38:35.730Z,18.83
2018-12-07T00:41:03.802Z,19.37
2018-12-07T00:43:31.618Z,17.87
2018-12-07T00:45:59.481Z,19.20
2018-12-07T00:48:27.313Z,17.83
2018-12-07T00:50:55.149Z,19.30
2018-12-07T00:53:23.094Z,24.03
2018-12-07T00:55:51.089Z,17.13
2018-12-07T00:58:19.023Z,18.77
2018-12-07T01:00:46.892Z,19.63
2018-12-07T01:03:14.768Z,19.87
2018-12-07T01:05:42.636Z,17.87
2018-12-07T01:08:10.592Z,17.00
2018-12-07T01:10:39.267Z,19.67
2018-12-07T01:13:07.891Z,17.93
2018-12-07T01:15:35.987Z,16.80
2018-12-07T01:18:03.862Z,18.17
2018-12-07T01:20:31.722Z,18.57
2018-12-07T01:22:59.582Z,20.47
2018-12-07T01:25:27.441Z,17.60
2018-12-07T01:27:55.950Z,20.33
2018-12-07T01:30:24.459Z,18.00
2018-12-07T01:32:52.329Z,19.60
2018-12-07T01:35:20.240Z,19.97
2018-12-07T01:37:48.113Z,17.77
2018-12-07T01:40:15.963Z,19.17
2018-12-07T01:42:44.255Z,19.50
2018-12-07T01:45:12.065Z,15.63
2018-12-07T01:47:45.112Z,21.27
2018-12-07T01:50:13.019Z,18.43
2018-12-07T01:52:40.849Z,22.20
2018-12-07T01:55:08.736Z,16.80
2018-12-07T01:57:36.581Z,18.20
2018-12-07T02:00:05.001Z,18.83
2018-12-07T02:02:32.845Z,19.23
2018-12-07T02:05:00.732Z,18.83
2018-12-07T02:07:30.616Z,19.23
2018-12-07T02:09:58.824Z,20.33
2018-12-07T02:12:26.667Z,20.07
2018-12-07T02:14:54.582Z,21.87
2018-12-07T02:17:22.496Z,16.83
2018-12-07T02:19:50.384Z,17.63
2018-12-07T02:22:18.265Z,20.43
2018-12-07T02:24:46.085Z,22.10
2018-12-07T02:27:13.931Z,22.53
2018-12-07T02:29:41.772Z,24.07
2018-12-07T02:32:09.623Z,23.00
2018-12-07T02:34:37.461Z,25.03
2018-12-07T02:37:10.915Z,29.30
2018-12-07T02:39:39.690Z,26.60
2018-12-07T02:42:08.526Z,24.23
2018-12-07T02:44:37.194Z,25.93
2018-12-07T02:47:06.297Z,34.53
2018-12-07T02:49:34.944Z,29.00
2018-12-07T02:52:03.304Z,28.10
2018-12-07T02:54:31.549Z,25.50
2018-12-07T02:57:00.167Z,26.10
2018-12-07T02:59:28.981Z,30.43
2018-12-07T03:01:57.654Z,34.27
2018-12-07T03:04:26.277Z,32.97
2018-12-07T03:06:55.083Z,29.60
2018-12-07T03:09:23.557Z,31.13
2018-12-07T03:11:51.461Z,29.63
2018-12-07T03:14:19.349Z,29.57
2018-12-07T03:16:47.207Z,32.00
2018-12-07T03:19:15.111Z,29.63
2018-12-07T03:21:42.981Z,28.43
2018-12-07T03:24:10.821Z,24.33
2018-12-07T03:26:38.706Z,27.87
2018-12-07T03:29:06.592Z,27.97
2018-12-07T03:31:34.526Z,28.60
2018-12-07T03:34:02.573Z,27.83
2018-12-07T03:36:30.873Z,30.23
2018-12-07T03:38:58.719Z,34.60
2018-12-07T03:41:26.604Z,31.00
2018-12-07T03:43:54.619Z,31.10
2018-12-07T03:46:22.476Z,39.13
2018-12-07T03:48:50.957Z,37.67
2018-12-07T03:51:18.965Z,35.30
2018-12-07T03:53:46.801Z,35.77
2018-12-07T03:56:14.845Z,40.37
2018-12-07T03:58:42.673Z,36.87
2018-12-07T04:01:10.529Z,47.67
2018-12-07T04:03:38.409Z,42.53
2018-12-07T04:06:06.247Z,50.87
2018-12-07T04:08:34.086Z,38.20
2018-12-07T04:11:01.944Z,46.37
2018-12-07T04:13:29.780Z,38.30
2018-12-07T04:15:57.622Z,42.70
2018-12-07T04:18:25.463Z,40.67
2018-12-07T04:20:53.356Z,46.93
2018-12-07T04:23:21.273Z,41.67
2018-12-07T04:25:49.210Z,40.77
2018-12-07T04:28:17.287Z,44.90
2018-12-07T04:30:45.142Z,49.80
2018-12-07T04:33:13.027Z,44.43
2018-12-07T04:35:40.962Z,49.20
2018-12-07T04:38:09.110Z,43.50
2018-12-07T04:40:36.971Z,38.67
2018-12-07T04:43:04.874Z,45.20
2018-12-07T04:45:32.768Z,45.30
2018-12-07T04:48:00.646Z,45.30
2018-12-07T04:50:28.486Z,53.83
2018-12-07T04:52:56.316Z,49.83
2018-12-07T04:55:24.209Z,51.20
2018-12-07T04:57:52.702Z,55.30
2018-12-07T05:00:21.352Z,45.83
2018-12-07T05:02:49.967Z,63.07
2018-12-07T05:05:18.382Z,54.97
2018-12-07T05:07:47.210Z,45.43
2018-12-07T05:10:15.675Z,50.07
2018-12-07T05:12:44.150Z,44.77
2018-12-07T05:15:12.478Z,42.13
2018-12-07T05:17:40.387Z,40.97
2018-12-07T05:20:08.401Z,43.67
2018-12-07T05:22:36.276Z,46.43
2018-12-07T05:25:04.294Z,57.80
2018-12-07T05:27:32.202Z,45.67
2018-12-07T05:30:00.126Z,48.47
2018-12-07T05:32:27.968Z,47.63
2018-12-07T05:34:56.361Z,47.13
2018-12-07T05:37:24.994Z,48.20
2018-12-07T05:39:52.871Z,45.60
2018-12-07T05:42:20.732Z,47.83
2018-12-07T05:44:48.575Z,44.23
2018-12-07T05:47:16.467Z,46.77
2018-12-07T05:49:44.570Z,41.83
2018-12-07T05:52:12.518Z,50.47
2018-12-07T05:54:40.444Z,43.23
2018-12-07T05:57:08.312Z,42.23
2018-12-07T05:59:36.608Z,45.27
2018-12-07T06:02:04.473Z,40.17
2018-12-07T06:04:32.367Z,46.77
2018-12-07T06:07:00.234Z,43.07
2018-12-07T06:09:28.065Z,42.67
2018-12-07T06:11:55.919Z,45.10
2018-12-07T06:14:23.825Z,38.73
2018-12-07T06:16:51.690Z,39.30
2018-12-07T06:19:19.581Z,44.63
2018-12-07T06:21:47.442Z,40.90
2018-12-07T06:24:15.450Z,40.07
2018-12-07T06:26:43.334Z,41.53
2018-12-07T06:29:11.213Z,40.27
2018-12-07T06:31:39.290Z,37.47
2018-12-07T06:34:07.238Z,36.60
2018-12-07T06:36:35.173Z,35.33
2018-12-07T06:39:03.419Z,41.80
2018-12-07T06:41:31.282Z,38.13
2018-12-07T06:43:59.173Z,36.73
2018-12-07T06:46:26.993Z,41.73
2018-12-07T06:49:05.221Z,35.77
2018-12-07T06:51:33.177Z,38.87
2018-12-07T06:54:01.266Z,34.10
2018-12-07T06:56:29.106Z,37.77
2018-12-07T06:58:57.002Z,38.90
2018-12-07T07:01:24.866Z,35.70
2018-12-07T07:03:53.434Z,33.27
2018-12-07T07:06:21.287Z,34.20
2018-12-07T07:08:49.181Z,33.17
2018-12-07T07:11:17.026Z,32.90
2018-12-07T07:13:45.067Z,33.67
2018-12-07T07:16:12.918Z,33.53
2018-12-07T07:18:40.782Z,30.53
2018-12-07T07:21:08.669Z,32.23
2018-12-07T07:23:36.525Z,88.53
2018-12-07T07:26:04.410Z,36.57
2018-12-07T07:29:34.857Z,36.40
2018-12-07T07:32:02.809Z,40.87
2018-12-07T07:34:30.746Z,34.83
2018-12-07T07:36:59.691Z,29.13
2018-12-07T07:39:28.295Z,32.83
2018-12-07T07:41:56.698Z,31.67
2018-12-07T07:44:25.166Z,32.50
2018-12-07T07:46:53.353Z,28.90
2018-12-07T07:49:21.193Z,24.93
2018-12-07T07:51:49.042Z,29.73
2018-12-07T07:54:16.933Z,25.23
2018-12-07T07:56:44.799Z,25.67
2018-12-07T07:59:12.653Z,27.83
2018-12-07T08:01:40.487Z,22.93
2018-12-07T08:04:08.337Z,22.50
2018-12-07T08:06:36.278Z,26.73
2018-12-07T08:09:06.322Z,26.17
2018-12-07T08:11:34.158Z,22.47
2018-12-07T08:14:02.046Z,26.97
2018-12-07T08:16:29.970Z,25.33
2018-12-07T08:18:57.828Z,22.27
2018-12-07T08:21:25.701Z,19.97
2018-12-07T08:23:53.590Z,19.47
2018-12-07T08:26:21.471Z,18.00
2018-12-07T08:28:49.422Z,21.67
2018-12-07T08:31:17.292Z,27.93
2018-12-07T08:33:45.231Z,23.93
2018-12-07T08:36:13.080Z,20.27
2018-12-07T08:38:40.984Z,17.60
2018-12-07T08:41:08.886Z,18.23
2018-12-07T08:43:36.736Z,16.63
2018-12-07T08:46:04.633Z,19.87
2018-12-07T08:48:32.475Z,13.57
2018-12-07T08:51:00.356Z,13.73
2018-12-07T08:53:28.190Z,14.43
2018-12-07T08:55:56.065Z,17.63
2018-12-07T08:58:23.923Z,16.93
2018-12-07T09:00:51.799Z,14.73
2018-12-07T09:03:19.726Z,15.17
2018-12-07T09:05:47.578Z,17.17
2018-12-07T09:08:15.683Z,18.57
2018-12-07T09:10:43.927Z,17.17
2018-12-07T09:13:11.977Z,15.67
2018-12-07T09:15:39.917Z,18.10
2018-12-07T09:18:07.902Z,18.00
2018-12-07T09:20:35.823Z,17.47
2018-12-07T09:23:03.858Z,18.63
2018-12-07T09:25:31.797Z,16.60
2018-12-07T09:27:59.807Z,13.87
2018-12-07T09:30:27.781Z,15.63
2018-12-07T09:32:55.651Z,14.67
2018-12-07T09:35:23.617Z,15.80
2018-12-07T09:37:51.462Z,12.30
2018-12-07T09:40:19.294Z,12.83
2018-12-07T09:42:47.702Z,17.33
2018-12-07T09:45:15.527Z,12.73
2018-12-07T09:47:43.423Z,19.27
2018-12-07T09:50:11.298Z,15.33
2018-12-07T09:52:39.160Z,13.07
2018-12-07T09:55:07.055Z,15.90
2018-12-07T09:57:36.420Z,14.57
2018-12-07T10:00:05.300Z,14.10
2018-12-07T10:02:33.372Z,12.33
2018-12-07T10:05:01.234Z,14.07
2018-12-07T10:07:29.308Z,16.73
2018-12-07T10:09:57.848Z,14.03
2018-12-07T10:12:26.162Z,9.87
2018-12-07T10:14:54.225Z,12.37
2018-12-07T10:17:22.070Z,11.20
2018-12-07T10:19:50.008Z,12.40
2018-12-07T10:22:18.751Z,8.80
2018-12-07T10:24:46.598Z,9.80
2018-12-07T10:27:14.496Z,8.00
2018-12-07T10:29:42.489Z,6.83
2018-12-07T10:32:10.316Z,11.53
2018-12-07T10:34:38.354Z,13.33
2018-12-07T10:37:06.243Z,8.53
2018-12-07T10:39:34.284Z,7.47
2018-12-07T10:42:02.132Z,12.23
2018-12-07T10:44:29.946Z,5.90
2018-12-07T10:46:58.496Z,7.00
2018-12-07T10:49:27.110Z,4.37
2018-12-07T10:51:55.902Z,10.10
2018-12-07T10:54:24.365Z,2.80
2018-12-07T10:56:52.253Z,2.37
2018-12-07T10:59:20.885Z,2.17
2018-12-07T11:01:54.373Z,3.80
2018-12-07T11:04:27.929Z,4.83
2018-12-07T11:07:01.672Z,3.33
2018-12-07T11:09:34.567Z,1.40
2018-12-07T11:12:08.969Z,0.97
2018-12-07T11:14:42.275Z,1.60
2018-12-07T11:17:15.939Z,0.50
2018-12-07T11:19:49.021Z,1.70
2018-12-07T11:22:22.393Z,1.07
2018-12-07T11:24:55.677Z,2.50
2018-12-07T11:27:28.908Z,3.90
2018-12-07T11:30:02.329Z,1.33
2018-12-07T11:32:35.485Z,1.20
2018-12-07T11:35:09.079Z,1.30
2018-12-07T11:37:36.998Z,0.50
2018-12-07T11:40:05.168Z,0.90
2018-12-07T11:42:33.274Z,0.70
2018-12-07T11:45:01.813Z,3.70
2018-12-07T11:47:29.761Z,2.10
2018-12-07T11:49:57.586Z,2.40
2018-12-07T11:52:25.405Z,2.00
2018-12-07T11:54:53.251Z,3.30
2018-12-07T11:57:21.136Z,1.90
2018-12-07T11:59:49.016Z,2.73
2018-12-07T12:02:17.514Z,3.30
2018-12-07T12:04:46.186Z,0.60
2018-12-07T12:07:14.957Z,0.70
2018-12-07T12:09:43.423Z,3.00
2018-12-07T12:12:12.205Z,0.93
2018-12-07T12:14:40.713Z,5.00
2018-12-07T12:17:09.358Z,0.83
2018-12-07T12:19:37.245Z,0.63
2018-12-07T12:22:05.127Z,0.73
2018-12-07T12:24:33.836Z,2.07
2018-12-07T12:27:01.695Z,1.60
2018-12-07T12:29:29.567Z,2.30
2018-12-07T12:31:57.414Z,1.77
2018-12-07T12:34:25.319Z,1.13
2018-12-07T12:36:53.186Z,4.47
2018-12-07T12:39:21.265Z,1.17
2018-12-07T12:41:49.186Z,1.50
2018-12-07T12:44:17.104Z,5.13
2018-12-07T12:46:44.952Z,3.47
2018-12-07T12:49:12.822Z,4.77
2018-12-07T12:51:40.713Z,1.83
2018-12-07T12:54:08.558Z,0.97
2018-12-07T12:56:36.369Z,0.40
2018-12-07T12:59:04.214Z,0.97
2018-12-07T13:01:32.049Z,1.47
2018-12-07T13:03:59.909Z,1.50
2018-12-07T13:06:27.744Z,4.90
2018-12-07T13:08:55.595Z,1.90
2018-12-07T13:11:23.562Z,2.47
2018-12-07T13:13:51.474Z,1.37
2018-12-07T13:16:19.334Z,3.30
2018-12-07T13:18:47.256Z,1.40
2018-12-07T13:21:15.144Z,1.87
2018-12-07T13:23:43.705Z,5.33
2018-12-07T13:26:12.115Z,2.17
2018-12-07T13:28:40.754Z,3.47
2018-12-07T13:31:09.381Z,1.97
2018-12-07T13:33:38.027Z,2.10
2018-12-07T13:36:05.853Z,3.67
2018-12-07T13:38:33.831Z,3.03
2018-12-07T13:41:01.839Z,2.90
2018-12-07T13:43:29.945Z,3.40
2018-12-07T13:45:59.263Z,3.23
2018-12-07T13:48:28.134Z,2.97
2018-12-07T13:50:56.745Z,3.60
2018-12-07T13:53:25.587Z,4.93
2018-12-07T13:55:54.126Z,5.93
2018-12-07T13:58:22.960Z,5.70
2018-12-07T14:00:51.508Z,3.47
2018-12-07T14:03:21.357Z,12.13
2018-12-07T14:05:50.246Z,3.30
2018-12-07T14:08:18.869Z,2.83
2018-12-07T14:10:47.154Z,3.10
2018-12-07T14:13:15.212Z,5.77
2018-12-07T14:15:43.150Z,4.80
2018-12-07T14:18:11.282Z,4.07
2018-12-07T14:20:40.225Z,4.43
2018-12-07T14:23:08.521Z,3.93
2018-12-07T14:25:36.801Z,4.80
2018-12-07T14:28:05.637Z,4.57
2018-12-07T14:30:35.940Z,3.17
2018-12-07T14:33:04.755Z,2.93
2018-12-07T14:35:33.537Z,4.30
2018-12-07T14:38:02.290Z,3.20
2018-12-07T14:40:30.670Z,2.87
2018-12-07T14:42:59.623Z,5.07
2018-12-07T14:45:28.076Z,2.90
2018-12-07T14:47:56.296Z,2.30
2018-12-07T14:50:24.353Z,3.13
2018-12-07T14:52:52.238Z,5.77
2018-12-07T14:55:20.365Z,6.83
2018-12-07T14:57:48.304Z,3.10
2018-12-07T15:00:16.328Z,5.47
2018-12-07T15:02:44.463Z,2.87
2018-12-07T15:05:12.885Z,4.90
2018-12-07T15:07:40.928Z,4.63
2018-12-07T15:10:09.559Z,2.70
2018-12-07T15:12:38.195Z,2.90
2018-12-07T15:15:06.795Z,5.30
2018-12-07T15:17:35.680Z,4.03
2018-12-07T15:20:04.443Z,4.83
2018-12-07T15:22:32.983Z,3.17
2018-12-07T15:25:01.845Z,3.63
2018-12-07T15:27:30.827Z,2.13
2018-12-07T15:29:59.327Z,3.87
2018-12-07T15:32:27.225Z,1.93
2018-12-07T15:34:55.328Z,2.00
2018-12-07T15:37:23.814Z,0.93
2018-12-07T15:39:52.703Z,1.37
2018-12-07T15:42:21.471Z,1.43
2018-12-07T15:44:50.142Z,3.90
2018-12-07T15:47:19.094Z,2.20
2018-12-07T15:49:47.823Z,4.93
2018-12-07T15:52:16.443Z,2.47
2018-12-07T15:54:45.196Z,3.53
2018-12-07T15:57:13.942Z,3.40
2018-12-07T15:59:43.066Z,4.17
2018-12-07T16:02:11.406Z,3.07
2018-12-07T16:04:39.808Z,1.43
2018-12-07T16:07:07.824Z,3.83
2018-12-07T16:09:35.945Z,1.63
2018-12-07T16:12:04.216Z,1.70
2018-12-07T16:14:33.009Z,1.70
2018-12-07T16:17:01.466Z,1.50
2018-12-07T16:19:30.387Z,1.40
2018-12-07T16:21:59.735Z,1.40
2018-12-07T16:24:28.457Z,1.57
2018-12-07T16:26:57.145Z,2.77
2018-12-07T16:29:25.748Z,3.27
2018-12-07T16:31:54.574Z,4.07
2018-12-07T16:34:23.358Z,1.80
2018-12-07T16:36:52.105Z,1.60
2018-12-07T16:39:21.363Z,1.40
2018-12-07T16:41:50.164Z,3.57
2018-12-07T16:44:18.769Z,3.73
2018-12-07T16:46:47.883Z,5.70
2018-12-07T16:49:17.384Z,2.50
2018-12-07T16:51:46.318Z,3.73
2018-12-07T16:54:14.364Z,2.07
2018-12-07T16:56:42.275Z,3.50
2018-12-07T16:59:10.296Z,3.63
2018-12-07T17:01:38.247Z,2.40
2018-12-07T17:04:06.328Z,3.00
2018-12-07T17:06:34.626Z,2.20
2018-12-07T17:09:03.557Z,1.80
2018-12-07T17:11:32.306Z,2.30
2018-12-07T17:14:01.034Z,1.97
2018-12-07T17:16:30.461Z,3.10
2018-12-07T17:18:59.282Z,1.97
2018-12-07T17:21:27.864Z,2.93
2018-12-07T17:23:56.560Z,2.47
2018-12-07T17:26:24.692Z,3.47
2018-12-07T17:28:52.787Z,2.13
2018-12-07T17:31:20.741Z,2.50
2018-12-07T17:33:48.845Z,3.73
2018-12-07T17:36:17.366Z,3.37
2018-12-07T17:38:45.944Z,2.93
2018-12-07T17:41:14.461Z,4.00
2018-12-07T17:43:43.185Z,2.43
2018-12-07T17:46:11.976Z,3.27
2018-12-07T17:48:40.844Z,2.63
2018-12-07T17:51:09.393Z,3.23
2018-12-07T17:53:38.072Z,3.70
2018-12-07T17:56:06.852Z,3.77
2018-12-07T17:58:35.643Z,6.20
2018-12-07T18:01:03.589Z,4.00
2018-12-07T18:03:32.099Z,2.40
2018-12-07T18:06:01.058Z,2.30
2018-12-07T18:08:30.562Z,2.47
2018-12-07T18:11:00.890Z,1.90
2018-12-07T18:13:31.112Z,2.00
2018-12-07T18:15:59.883Z,2.40
2018-12-07T18:18:28.670Z,6.10
2018-12-07T18:20:56.883Z,5.27
2018-12-07T18:23:26.234Z,2.47
2018-12-07T18:25:55.090Z,2.73
2018-12-07T18:28:23.666Z,3.27
2018-12-07T18:30:52.362Z,2.70
2018-12-07T18:33:21.347Z,5.37
2018-12-07T18:35:49.945Z,5.17
2018-12-07T18:38:18.567Z,6.33
2018-12-07T18:40:47.414Z,6.80
2018-12-07T18:43:15.862Z,3.60
2018-12-07T18:45:44.970Z,2.17
2018-12-07T18:48:13.883Z,1.27
2018-12-07T18:50:42.603Z,2.73
2018-12-07T18:53:11.733Z,2.23
2018-12-07T18:55:40.916Z,1.20
2018-12-07T18:58:10.965Z,1.13
2018-12-07T19:00:39.717Z,2.50
2018-12-07T19:03:08.793Z,2.60
2018-12-07T19:05:37.776Z,3.00
2018-12-07T19:08:06.825Z,3.40
2018-12-07T19:10:35.888Z,4.90
2018-12-07T19:13:04.717Z,2.80
2018-12-07T19:15:34.011Z,2.70
2018-12-07T19:18:03.235Z,3.03
2018-12-07T19:20:32.272Z,4.00
2018-12-07T19:23:01.021Z,2.33
2018-12-07T19:25:29.800Z,4.93
2018-12-07T19:27:59.808Z,3.03
2018-12-07T19:30:28.694Z,3.17
2018-12-07T19:32:57.392Z,3.50
2018-12-07T19:35:26.031Z,2.40
2018-12-07T19:37:54.753Z,8.37
2018-12-07T19:40:23.611Z,3.87
2018-12-07T19:42:51.546Z,4.80
2018-12-07T19:45:19.640Z,3.33
2018-12-07T19:47:48.294Z,2.03
2018-12-07T19:50:17.102Z,6.90
2018-12-07T19:52:45.497Z,4.37
2018-12-07T19:55:14.459Z,4.77
2018-12-07T19:57:43.507Z,3.73
2018-12-07T20:00:13.920Z,3.13
2018-12-07T20:02:43.258Z,4.23
2018-12-07T20:05:12.095Z,6.23
2018-12-07T20:07:40.891Z,3.10
2018-12-07T20:10:09.744Z,4.57
2018-12-07T20:12:38.527Z,5.70
2018-12-07T20:15:07.738Z,5.90
2018-12-07T20:17:36.798Z,2.43
2018-12-07T20:20:05.694Z,7.47
2018-12-07T20:22:35.201Z,4.73
2018-12-07T20:25:03.266Z,5.17
2018-12-07T20:27:32.328Z,4.50
2018-12-07T20:30:01.068Z,6.37
2018-12-07T20:32:29.904Z,3.53
2018-12-07T20:34:59.157Z,6.93
2018-12-07T20:37:27.831Z,6.10
2018-12-07T20:39:56.501Z,6.30
2018-12-07T20:42:25.612Z,6.73
2018-12-07T20:44:53.883Z,6.17
2018-12-07T20:47:24.931Z,6.40
2018-12-07T20:49:53.390Z,7.90
2018-12-07T20:52:22.514Z,7.47
2018-12-07T20:54:51.337Z,4.03
2018-12-07T20:57:20.325Z,4.93
2018-12-07T20:59:48.905Z,7.00
2018-12-07T21:02:17.531Z,5.20
2018-12-07T21:04:46.207Z,6.70
2018-12-07T21:07:26.872Z,5.60
2018-12-07T21:10:16.339Z,6.90
2018-12-07T21:13:25.898Z,8.43
2018-12-07T21:15:54.173Z,7.67
2018-12-07T21:18:22.617Z,5.63
2018-12-07T21:20:50.645Z,4.57
2018-12-07T21:23:18.910Z,9.10
2018-12-07T21:25:47.193Z,6.07
2018-12-07T21:28:15.145Z,7.23
2018-12-07T21:30:50.486Z,9.47
2018-12-07T21:33:20.455Z,6.63
2018-12-07T21:36:26.304Z,6.57
2018-12-07T21:38:54.198Z,4.40
2018-12-07T21:41:22.096Z,9.57
2018-12-07T21:43:50.104Z,7.23
2018-12-07T21:46:18.791Z,4.53
2018-12-07T21:48:47.446Z,4.37
2018-12-07T21:51:22.476Z,9.30
2018-12-07T21:53:50.455Z,2.37
2018-12-07T21:56:18.398Z,7.90
2018-12-07T21:58:46.653Z,6.10
2018-12-07T22:01:14.608Z,5.97
2018-12-07T22:03:42.794Z,11.53
2018-12-07T22:06:11.039Z,5.87
2018-12-07T22:08:39.143Z,2.77
2018-12-07T22:11:07.898Z,0.70
2018-12-07T22:13:36.258Z,2.83
2018-12-07T22:16:04.430Z,3.63
2018-12-07T22:18:32.384Z,2.80
2018-12-07T22:21:02.107Z,4.00
2018-12-07T22:23:30.525Z,2.40
2018-12-07T22:25:59.564Z,2.23
2018-12-07T22:28:28.192Z,4.77
2018-12-07T22:30:56.397Z,3.33
2018-12-07T22:33:24.504Z,2.23
2018-12-07T22:35:52.567Z,2.03
2018-12-07T22:38:20.868Z,3.23
2018-12-07T22:40:49.222Z,2.73
2018-12-07T22:43:17.178Z,3.23
2018-12-07T22:45:45.268Z,2.27
2018-12-07T22:48:13.373Z,4.00
2018-12-07T22:50:41.337Z,3.83
2018-12-07T22:53:09.251Z,5.67
2018-12-07T22:55:37.181Z,1.43
2018-12-07T22:58:05.038Z,6.73
2018-12-07T23:00:32.957Z,5.00
2018-12-07T23:03:00.988Z,3.43
2018-12-07T23:05:29.280Z,1.87
2018-12-07T23:07:57.102Z,3.13
2018-12-07T23:10:24.958Z,2.57
2018-12-07T23:12:52.834Z,8.17
2018-12-07T23:15:20.716Z,4.63
2018-12-07T23:17:48.554Z,6.97
2018-12-07T23:20:16.417Z,3.00
2018-12-07T23:22:48.947Z,7.20
2018-12-07T23:25:14.155Z,4.60
2018-12-07T23:27:42.068Z,2.03
2018-12-07T23:30:09.950Z,4.80
2018-12-07T23:32:38.002Z,4.23
2018-12-07T23:35:06.536Z,7.67
2018-12-07T23:37:34.404Z,4.37
2018-12-07T23:40:02.314Z,7.47
2018-12-07T23:42:30.374Z,11.17
2018-12-07T23:44:58.303Z,3.87
2018-12-07T23:47:26.414Z,6.87
2018-12-07T23:49:54.254Z,2.80
2018-12-07T23:52:22.101Z,3.67
2018-12-07T23:54:49.950Z,5.67
2018-12-07T23:57:17.807Z,7.13
2018-12-07T23:59:45.666Z,7.90
